Time;durP1;ratioP1;P1;durP2;ratioP2;P2;SDS_P1;SDS_P2;PMS_P1;PMS_P2;Temp;Humidity;BMP_temperature;BMP_pressure;BME280_temperature;BME280_humidity;BME280_pressure;Samples;Min_cycle;Max_cycle;Signal;HPM_P1;HPM_P2
2023/03/27 00:00:49;;;;;;;8.07;6.47;;;3.20;99.90;;;;;;5042341;28;20198;-64
2023/03/27 00:03:16;;;;;;;11.63;6.97;;;3.30;99.90;;;;;;5052474;28;20175;-64
2023/03/27 00:05:43;;;;;;;6.60;6.20;;;3.20;99.90;;;;;;5042997;28;20191;-64
2023/03/27 00:08:09;;;;;;;7.17;6.57;;;3.20;99.90;;;;;;5032056;28;20175;-64
2023/03/27 00:10:35;;;;;;;14.07;5.53;;;3.20;99.90;;;;;;5039435;28;20198;-64
2023/03/27 00:13:04;;;;;;;5.80;5.50;;;3.10;99.90;;;;;;5052176;28;20212;-65
2023/03/27 00:15:31;;;;;;;5.90;5.60;;;3.10;99.90;;;;;;5043794;28;20179;-64
2023/03/27 00:17:57;;;;;;;5.80;5.50;;;3.10;99.90;;;;;;5032540;28;20175;-64
2023/03/27 00:20:25;;;;;;;5.83;5.43;;;3.00;99.90;;;;;;5020176;28;20746;-64
2023/03/27 00:22:59;;;;;;;8.67;5.50;;;2.90;99.90;;;;;;5052050;28;20198;-65
2023/03/27 00:25:27;;;;;;;8.30;7.70;;;2.80;99.90;;;;;;5045511;28;20267;-64
2023/03/27 00:27:55;;;;;;;6.43;5.93;;;2.70;99.90;;;;;;5032016;28;20164;-63
2023/03/27 00:30:21;;;;;;;6.03;5.67;;;2.70;99.90;;;;;;5035641;28;20240;-64
2023/03/27 00:32:47;;;;;;;6.20;5.80;;;2.60;99.90;;;;;;5051144;28;20194;-64
2023/03/27 00:35:13;;;;;;;6.30;6.00;;;2.60;99.90;;;;;;5046979;28;20179;-64
2023/03/27 00:37:39;;;;;;;6.70;6.03;;;2.50;99.90;;;;;;5014276;28;20671;-64
2023/03/27 00:40:16;;;;;;;6.47;6.17;;;2.50;99.90;;;;;;5032725;28;20206;-64
2023/03/27 00:42:43;;;;;;;6.30;5.90;;;2.50;99.90;;;;;;5051687;28;20202;-64
2023/03/27 00:45:17;;;;;;;6.00;5.80;;;2.50;99.90;;;;;;5049402;28;20163;-64
2023/03/27 00:47:45;;;;;;;8.17;6.33;;;2.50;99.90;;;;;;5031704;28;20196;-63
2023/03/27 00:50:17;;;;;;;7.57;6.40;;;2.50;99.90;;;;;;5032124;28;20195;-64
2023/03/27 00:52:46;;;;;;;6.83;6.33;;;2.50;99.90;;;;;;5051610;28;20219;-65
2023/03/27 00:55:16;;;;;;;5.70;5.43;;;2.50;99.90;;;;;;5049808;28;20232;-64
2023/03/27 00:57:44;;;;;;;6.83;6.40;;;2.50;99.90;;;;;;5031566;28;20175;-64
2023/03/27 01:00:13;;;;;;;6.73;6.37;;;2.50;99.90;;;;;;5031075;28;20249;-65
2023/03/27 01:02:41;;;;;;;6.30;6.00;;;2.40;99.90;;;;;;5051250;28;20541;-65
2023/03/27 01:05:08;;;;;;;6.50;5.63;;;2.40;99.90;;;;;;5048180;28;20170;-64
2023/03/27 01:07:34;;;;;;;6.37;5.97;;;2.40;99.90;;;;;;5051187;28;20182;-63
2023/03/27 01:10:00;;;;;;;6.00;5.70;;;2.40;99.90;;;;;;5049561;28;20191;-65
2023/03/27 01:12:35;;;;;;;8.00;6.70;;;2.40;99.90;;;;;;5031104;28;20190;-64
2023/03/27 01:15:07;;;;;;;6.87;6.53;;;2.40;99.90;;;;;;5031698;28;20254;-64
2023/03/27 01:17:58;;;;;;;7.50;6.77;;;2.30;99.90;;;;;;5051146;28;20556;-64
2023/03/27 01:20:51;;;;;;;6.37;6.07;;;2.30;99.90;;;;;;5047121;28;20195;-64
2023/03/27 01:23:52;;;;;;;6.57;6.27;;;2.30;99.90;;;;;;5031164;28;20190;-64
2023/03/27 01:26:39;;;;;;;8.47;7.87;;;2.30;99.90;;;;;;5040945;28;20185;-64
2023/03/27 01:29:32;;;;;;;6.43;6.13;;;2.20;99.90;;;;;;5033196;28;20644;-64
2023/03/27 01:32:07;;;;;;;6.60;6.10;;;2.30;99.90;;;;;;5034885;28;20192;-64
2023/03/27 01:34:45;;;;;;;7.17;6.60;;;2.30;99.90;;;;;;5013286;28;20613;-63
2023/03/27 01:37:29;;;;;;;7.23;6.57;;;2.30;99.90;;;;;;5043173;28;20651;-64
2023/03/27 01:40:03;;;;;;;6.80;6.50;;;2.30;99.90;;;;;;5030750;28;20221;-63
2023/03/27 01:42:45;;;;;;;8.10;7.57;;;2.30;99.90;;;;;;5031064;28;20205;-64
2023/03/27 01:45:15;;;;;;;6.20;5.90;;;2.20;99.90;;;;;;5031134;28;20170;-64
2023/03/27 01:47:55;;;;;;;6.63;6.33;;;2.20;99.90;;;;;;5012344;28;20247;-65
2023/03/27 01:50:32;;;;;;;9.93;6.50;;;2.20;99.90;;;;;;5016646;28;20195;-65
2023/03/27 01:53:12;;;;;;;6.83;6.47;;;2.20;99.90;;;;;;5015274;28;20187;-64
2023/03/27 01:55:42;;;;;;;9.10;7.17;;;2.20;99.90;;;;;;5036471;28;20263;-64
2023/03/27 01:58:14;;;;;;;6.73;6.43;;;2.20;99.90;;;;;;5054631;28;20245;-64
2023/03/27 02:00:44;;;;;;;7.30;6.80;;;2.20;99.90;;;;;;5043730;28;20210;-63
2023/03/27 02:03:17;;;;;;;8.63;6.63;;;2.20;99.90;;;;;;5034807;28;20218;-64
2023/03/27 02:06:15;;;;;;;7.17;6.87;;;2.10;99.90;;;;;;5026857;28;20557;-65
2023/03/27 02:08:51;;;;;;;8.83;7.43;;;2.10;99.90;;;;;;5054039;28;20596;-64
2023/03/27 02:11:17;;;;;;;7.03;6.53;;;2.10;99.90;;;;;;5039580;28;20179;-63
2023/03/27 02:13:49;;;;;;;7.90;7.33;;;2.10;99.90;;;;;;5034640;28;20278;-65
2023/03/27 02:16:20;;;;;;;7.60;7.30;;;2.10;99.90;;;;;;5047626;28;20678;-64
2023/03/27 02:18:55;;;;;;;8.47;7.57;;;2.10;99.90;;;;;;5054694;28;20618;-64
2023/03/27 02:21:22;;;;;;;8.17;6.57;;;2.10;99.90;;;;;;5040135;28;20689;-64
2023/03/27 02:23:48;;;;;;;7.77;7.37;;;2.20;99.90;;;;;;5034595;28;20254;-63
2023/03/27 02:26:14;;;;;;;7.50;6.97;;;2.20;99.90;;;;;;5035134;28;20207;-64
2023/03/27 02:28:47;;;;;;;8.93;6.80;;;2.20;99.90;;;;;;5034612;28;20171;-64
2023/03/27 02:31:50;;;;;;;7.57;7.27;;;2.20;99.90;;;;;;5047056;28;20183;-63
2023/03/27 02:34:31;;;;;;;7.70;7.20;;;2.20;99.90;;;;;;5053871;28;20202;-63
2023/03/27 02:37:24;;;;;;;7.73;7.23;;;2.20;99.90;;;;;;5017411;28;20544;-64
2023/03/27 02:39:57;;;;;;;9.37;6.77;;;2.10;99.90;;;;;;5042103;28;20230;-65
2023/03/27 02:42:41;;;;;;;6.80;6.50;;;2.10;99.90;;;;;;5053798;28;20194;-63
2023/03/27 02:45:23;;;;;;;8.30;7.90;;;2.10;99.90;;;;;;5035308;28;20202;-64
2023/03/27 02:48:11;;;;;;;6.40;6.13;;;2.00;99.90;;;;;;5053915;28;20163;-64
2023/03/27 02:50:42;;;;;;;7.50;6.77;;;2.00;99.90;;;;;;5039038;28;20195;-65
2023/03/27 02:53:11;;;;;;;8.07;7.67;;;2.00;99.90;;;;;;5034147;28;20167;-64
2023/03/27 02:55:43;;;;;;;6.70;6.40;;;1.90;99.90;;;;;;5047855;28;20266;-63
2023/03/27 02:58:13;;;;;;;17.43;7.93;;;1.90;99.90;;;;;;5052470;28;20177;-63
2023/03/27 03:00:47;;;;;;;8.10;7.27;;;1.80;99.90;;;;;;5039493;28;20681;-64
2023/03/27 03:03:26;;;;;;;6.57;6.23;;;1.80;99.90;;;;;;5033838;28;20179;-65
2023/03/27 03:05:55;;;;;;;8.10;6.60;;;1.80;99.90;;;;;;5048515;28;20178;-64
2023/03/27 03:08:21;;;;;;;7.93;7.20;;;1.80;99.90;;;;;;5053592;28;20197;-64
2023/03/27 03:10:47;;;;;;;8.50;7.40;;;1.80;99.90;;;;;;5021550;28;20196;-65
2023/03/27 03:13:16;;;;;;;10.27;6.90;;;1.70;99.90;;;;;;5033529;28;20218;-64
2023/03/27 03:15:44;;;;;;;7.90;7.30;;;1.70;99.90;;;;;;5047525;28;20220;-64
2023/03/27 03:18:11;;;;;;;8.23;7.63;;;1.70;99.90;;;;;;5053459;28;20166;-64
2023/03/27 03:20:38;;;;;;;7.70;7.27;;;1.70;99.90;;;;;;5040063;28;20202;-63
2023/03/27 03:23:04;;;;;;;8.63;7.90;;;1.70;99.90;;;;;;5033292;28;20202;-64
2023/03/27 03:25:31;;;;;;;7.97;7.57;;;1.70;99.90;;;;;;5044651;28;20669;-65
2023/03/27 03:27:59;;;;;;;8.10;7.50;;;1.70;99.90;;;;;;5053318;28;20206;-64
2023/03/27 03:30:26;;;;;;;11.50;8.17;;;1.60;99.90;;;;;;5042546;28;20191;-64
2023/03/27 03:32:54;;;;;;;7.60;7.10;;;1.60;99.90;;;;;;5033423;28;20172;-65
2023/03/27 03:35:23;;;;;;;7.80;6.90;;;1.60;99.90;;;;;;5041722;28;20198;-64
2023/03/27 03:37:50;;;;;;;7.43;7.13;;;1.60;99.90;;;;;;5053208;28;20560;-64
2023/03/27 03:40:17;;;;;;;11.40;7.37;;;1.60;99.90;;;;;;5044825;28;20199;-64
2023/03/27 03:42:49;;;;;;;7.23;6.83;;;1.60;99.90;;;;;;5015556;28;20265;-65
2023/03/27 03:45:16;;;;;;;8.47;7.03;;;1.60;99.90;;;;;;5039744;28;20183;-64
2023/03/27 03:47:43;;;;;;;6.87;6.40;;;1.60;99.90;;;;;;5053122;28;20178;-64
2023/03/27 03:50:10;;;;;;;6.37;6.07;;;1.50;99.90;;;;;;5050789;28;20199;-65
2023/03/27 03:52:35;;;;;;;7.80;7.27;;;1.50;99.90;;;;;;5052745;28;20190;-64
2023/03/27 03:55:03;;;;;;;7.53;6.90;;;1.50;99.90;;;;;;5046794;28;20176;-63
2023/03/27 03:57:28;;;;;;;7.63;7.33;;;1.50;99.90;;;;;;5033142;28;20520;-65
2023/03/27 03:59:56;;;;;;;7.40;7.10;;;1.50;99.90;;;;;;5036319;28;20256;-65
2023/03/27 04:02:28;;;;;;;6.90;6.60;;;1.50;99.90;;;;;;5052439;28;20198;-65
2023/03/27 04:04:58;;;;;;;7.17;6.87;;;1.50;99.90;;;;;;5048991;28;20176;-65
2023/03/27 04:07:30;;;;;;;7.27;6.97;;;1.50;99.90;;;;;;5032638;28;20225;-64
2023/03/27 04:09:57;;;;;;;8.47;7.67;;;1.50;99.90;;;;;;5034535;28;20199;-64
2023/03/27 04:12:22;;;;;;;8.20;7.70;;;1.50;99.90;;;;;;5052065;28;20182;-65
2023/03/27 04:14:48;;;;;;;8.13;7.73;;;1.50;99.90;;;;;;5051853;28;20186;-65
2023/03/27 04:17:14;;;;;;;8.30;7.70;;;1.60;99.90;;;;;;5052552;28;20167;-64
2023/03/27 04:19:40;;;;;;;7.20;6.90;;;1.50;99.90;;;;;;5050218;28;20194;-64
2023/03/27 04:22:06;;;;;;;8.10;7.80;;;1.50;99.90;;;;;;5032461;28;20195;-65
2023/03/27 04:24:32;;;;;;;8.63;8.13;;;1.50;99.90;;;;;;5032257;28;20178;-64
2023/03/27 04:27:00;;;;;;;14.70;8.20;;;1.50;99.90;;;;;;5052147;28;20197;-63
2023/03/27 04:29:29;;;;;;;11.50;7.53;;;1.50;99.90;;;;;;5051740;28;20187;-65
2023/03/27 04:31:58;;;;;;;7.77;7.47;;;1.50;99.90;;;;;;5033002;28;20183;-64
2023/03/27 04:34:24;;;;;;;8.60;7.77;;;1.50;99.90;;;;;;5032023;28;20660;-65
2023/03/27 04:36:50;;;;;;;8.77;8.07;;;1.60;99.90;;;;;;5049624;28;20178;-64
2023/03/27 04:39:18;;;;;;;7.13;6.83;;;1.50;99.90;;;;;;5042456;28;20211;-64
2023/03/27 04:41:48;;;;;;;7.47;7.10;;;1.50;99.90;;;;;;5031983;28;20200;-63
2023/03/27 04:44:16;;;;;;;7.03;6.70;;;1.50;99.90;;;;;;5040181;28;20175;-65
2023/03/27 04:46:47;;;;;;;7.73;7.33;;;1.50;99.90;;;;;;5051732;28;20641;-64
2023/03/27 04:49:15;;;;;;;6.63;6.33;;;1.50;99.90;;;;;;5043614;28;20191;-65
2023/03/27 04:51:41;;;;;;;8.03;7.47;;;1.50;99.90;;;;;;5031838;28;20168;-64
2023/03/27 04:54:07;;;;;;;7.63;7.17;;;1.50;99.90;;;;;;5037877;28;20257;-65
2023/03/27 04:56:33;;;;;;;7.90;7.47;;;1.50;99.90;;;;;;5050965;28;20687;-65
2023/03/27 04:59:00;;;;;;;6.97;6.57;;;1.50;99.90;;;;;;5031613;28;20572;-65
2023/03/27 05:01:26;;;;;;;8.97;7.47;;;1.50;99.90;;;;;;5031380;28;20207;-65
2023/03/27 05:03:52;;;;;;;7.87;7.37;;;1.50;99.90;;;;;;5050229;28;20170;-64
2023/03/27 05:06:18;;;;;;;8.27;7.77;;;1.50;99.90;;;;;;5051572;28;20576;-64
2023/03/27 05:08:44;;;;;;;7.57;7.27;;;1.60;99.90;;;;;;5033563;28;20266;-65
2023/03/27 05:11:09;;;;;;;7.20;6.80;;;1.60;99.90;;;;;;5031207;28;20241;-65
2023/03/27 05:13:35;;;;;;;8.23;6.87;;;1.60;99.90;;;;;;5028893;28;20179;-64
2023/03/27 05:16:01;;;;;;;8.40;7.20;;;1.70;99.90;;;;;;5051518;28;20182;-65
2023/03/27 05:18:29;;;;;;;8.20;7.70;;;1.80;99.90;;;;;;5036961;28;20253;-65
2023/03/27 05:20:56;;;;;;;7.30;7.00;;;1.80;99.90;;;;;;5031085;28;20175;-65
2023/03/27 05:23:22;;;;;;;8.57;8.17;;;1.90;99.90;;;;;;5043740;28;20171;-64
2023/03/27 05:25:47;;;;;;;8.30;7.80;;;1.90;99.90;;;;;;5051440;28;20646;-65
2023/03/27 05:28:13;;;;;;;8.43;7.10;;;2.00;99.90;;;;;;5049629;28;20592;-65
2023/03/27 05:30:41;;;;;;;7.20;6.80;;;2.00;99.90;;;;;;5050875;28;20209;-64
2023/03/27 05:33:07;;;;;;;8.10;7.70;;;2.10;99.90;;;;;;5039832;28;20211;-64
2023/03/27 05:35:33;;;;;;;7.63;7.23;;;2.10;99.90;;;;;;5013706;28;20258;-65
2023/03/27 05:37:59;;;;;;;8.03;7.57;;;2.10;99.90;;;;;;5036986;28;20171;-65
2023/03/27 05:40:27;;;;;;;7.80;7.40;;;2.20;99.90;;;;;;5037043;28;20289;-65
2023/03/27 05:42:54;;;;;;;8.13;7.63;;;2.30;99.90;;;;;;5031332;28;20200;-66
2023/03/27 05:45:21;;;;;;;8.20;7.20;;;2.30;99.90;;;;;;5033257;28;20203;-65
2023/03/27 05:47:50;;;;;;;7.40;6.77;;;2.40;99.90;;;;;;5046264;28;20205;-64
2023/03/27 05:50:18;;;;;;;7.37;6.97;;;2.50;99.90;;;;;;5050558;28;20187;-64
2023/03/27 05:52:44;;;;;;;6.90;6.57;;;2.60;99.90;;;;;;5036569;28;20187;-64
2023/03/27 05:55:10;;;;;;;7.63;7.23;;;2.70;99.90;;;;;;5031086;28;20175;-65
2023/03/27 05:57:38;;;;;;;7.60;7.10;;;2.80;99.90;;;;;;5043876;28;20193;-65
2023/03/27 06:00:10;;;;;;;7.30;6.77;;;2.80;99.90;;;;;;5050571;28;20274;-64
2023/03/27 06:02:37;;;;;;;6.53;6.23;;;2.90;99.90;;;;;;5049192;28;20297;-65
2023/03/27 06:05:03;;;;;;;7.03;6.37;;;3.00;99.90;;;;;;5051055;28;20167;-64
2023/03/27 06:07:29;;;;;;;7.37;6.30;;;3.10;99.90;;;;;;5050367;28;20171;-65
2023/03/27 06:09:55;;;;;;;7.00;6.60;;;3.10;99.90;;;;;;5050625;28;20695;-64
2023/03/27 06:12:22;;;;;;;7.13;6.63;;;3.20;99.90;;;;;;5041417;28;20175;-65
2023/03/27 06:14:48;;;;;;;7.60;7.20;;;3.30;99.90;;;;;;5034695;28;20171;-65
2023/03/27 06:17:14;;;;;;;8.87;8.23;;;3.30;99.90;;;;;;5029861;28;20266;-65
2023/03/27 06:19:40;;;;;;;7.83;7.43;;;3.50;99.90;;;;;;5029626;28;20187;-66
2023/03/27 06:22:06;;;;;;;11.70;7.60;;;3.60;99.90;;;;;;5037419;28;20202;-65
2023/03/27 06:24:32;;;;;;;7.13;6.83;;;3.70;99.90;;;;;;5050555;28;20598;-65
2023/03/27 06:26:57;;;;;;;10.10;9.47;;;3.80;99.90;;;;;;5044318;28;20178;-65
2023/03/27 06:29:27;;;;;;;9.00;8.40;;;3.90;99.90;;;;;;5030068;28;20203;-65
2023/03/27 06:31:56;;;;;;;11.30;10.70;;;4.00;99.90;;;;;;5035230;28;20175;-65
2023/03/27 06:34:22;;;;;;;8.80;8.30;;;4.10;99.90;;;;;;5052288;28;20181;-64
2023/03/27 06:36:48;;;;;;;7.67;7.10;;;4.10;99.90;;;;;;5034707;28;20179;-65
2023/03/27 06:39:15;;;;;;;7.37;7.07;;;4.20;99.90;;;;;;5055762;28;20281;-65
2023/03/27 06:41:40;;;;;;;8.60;7.80;;;4.20;99.90;;;;;;5050076;28;20271;-65
2023/03/27 06:44:06;;;;;;;8.63;8.13;;;4.10;99.90;;;;;;5033815;28;20175;-65
2023/03/27 06:46:32;;;;;;;8.90;8.30;;;4.00;99.90;;;;;;5018233;28;20182;-66
2023/03/27 06:48:57;;;;;;;9.87;9.03;;;4.00;99.90;;;;;;5054071;28;20275;-65
2023/03/27 06:51:25;;;;;;;8.03;7.53;;;4.00;99.90;;;;;;5052918;28;20171;-64
2023/03/27 06:53:51;;;;;;;7.67;7.07;;;4.10;99.90;;;;;;5033928;28;20543;-65
2023/03/27 06:56:17;;;;;;;10.07;8.50;;;4.30;99.90;;;;;;5033798;28;20168;-65
2023/03/27 06:58:43;;;;;;;7.47;6.87;;;4.70;99.90;;;;;;5052576;28;20178;-63
2023/03/27 07:01:09;;;;;;;6.40;6.07;;;5.00;99.90;;;;;;5053493;28;20179;-65
2023/03/27 07:03:34;;;;;;;10.63;6.40;;;5.50;99.90;;;;;;5036306;28;20180;-65
2023/03/27 07:06:00;;;;;;;9.93;8.53;;;5.70;99.90;;;;;;5033643;28;20168;-65
2023/03/27 07:08:26;;;;;;;6.73;6.03;;;5.90;99.90;;;;;;5034838;28;20543;-65
2023/03/27 07:10:53;;;;;;;7.97;5.80;;;6.10;99.90;;;;;;5015803;28;20218;-65
2023/03/27 07:13:18;;;;;;;5.63;5.33;;;6.20;99.90;;;;;;5048912;28;20522;-65
2023/03/27 07:15:44;;;;;;;5.73;5.43;;;6.10;99.90;;;;;;5035674;28;20228;-65
2023/03/27 07:18:10;;;;;;;7.43;6.80;;;6.10;99.90;;;;;;5039069;28;20254;-65
2023/03/27 07:20:36;;;;;;;8.00;5.20;;;6.10;99.90;;;;;;5033164;28;20673;-65
2023/03/27 07:23:02;;;;;;;5.40;5.00;;;6.20;99.90;;;;;;5045203;28;20238;-65
2023/03/27 07:25:36;;;;;;;5.27;4.77;;;6.60;99.90;;;;;;5053409;28;20603;-65
2023/03/27 07:28:06;;;;;;;5.50;5.20;;;6.90;99.90;;;;;;5041420;28;20707;-65
2023/03/27 07:30:33;;;;;;;4.93;4.70;;;7.10;99.90;;;;;;5015137;28;20579;-65
2023/03/27 07:32:59;;;;;;;5.23;4.83;;;7.30;99.90;;;;;;5037002;28;20187;-65
2023/03/27 07:35:25;;;;;;;4.90;4.60;;;7.50;99.90;;;;;;5015502;28;20641;-65
2023/03/27 07:37:53;;;;;;;5.00;4.70;;;7.90;99.90;;;;;;5043458;28;20274;-65
2023/03/27 07:40:22;;;;;;;5.10;4.80;;;8.20;99.90;;;;;;5052648;28;20680;-65
2023/03/27 07:42:48;;;;;;;4.57;4.20;;;8.50;99.90;;;;;;5042853;28;20214;-65
2023/03/27 07:45:16;;;;;;;5.00;4.40;;;8.60;99.90;;;;;;5032539;28;20656;-65
2023/03/27 07:47:42;;;;;;;4.60;4.37;;;8.70;99.90;;;;;;5040761;28;20186;-64
2023/03/27 07:50:10;;;;;;;3.47;3.37;;;8.70;99.90;;;;;;5052352;28;20190;-65
2023/03/27 07:52:39;;;;;;;5.07;4.40;;;8.90;99.90;;;;;;5045470;28;20187;-65
2023/03/27 07:55:05;;;;;;;4.37;4.10;;;8.60;99.90;;;;;;5032484;28;20203;-65
2023/03/27 07:57:32;;;;;;;7.33;4.27;;;8.40;99.90;;;;;;5033571;28;20183;-65
2023/03/27 07:59:58;;;;;;;5.07;4.47;;;8.60;99.90;;;;;;5032165;28;20250;-65
2023/03/27 08:02:26;;;;;;;4.20;4.00;;;8.70;99.90;;;;;;5038038;28;20214;-65
2023/03/27 08:04:53;;;;;;;5.10;4.27;;;8.80;99.90;;;;;;5052447;28;20182;-64
2023/03/27 08:07:20;;;;;;;4.10;3.90;;;9.10;99.90;;;;;;5047829;28;20168;-65
2023/03/27 08:09:46;;;;;;;4.47;4.17;;;9.30;99.90;;;;;;5032238;28;20194;-65
2023/03/27 08:12:11;;;;;;;4.73;4.30;;;9.60;99.90;;;;;;5034910;28;20179;-66
2023/03/27 08:14:37;;;;;;;4.07;3.70;;;9.80;99.90;;;;;;5052344;28;20699;-66
2023/03/27 08:17:03;;;;;;;4.17;3.97;;;9.90;99.90;;;;;;5051050;28;20526;-65
2023/03/27 08:19:28;;;;;;;4.67;4.37;;;10.00;99.90;;;;;;5032009;28;20203;-65
2023/03/27 08:21:54;;;;;;;4.03;3.77;;;10.20;99.90;;;;;;5033180;28;20210;-65
2023/03/27 08:24:19;;;;;;;3.80;3.50;;;10.50;99.90;;;;;;5032134;28;20712;-65
2023/03/27 08:26:45;;;;;;;3.97;3.77;;;10.70;99.90;;;;;;5031308;28;20203;-65
2023/03/27 08:29:11;;;;;;;3.83;3.63;;;10.80;99.90;;;;;;5050829;28;20202;-65
2023/03/27 08:31:36;;;;;;;3.80;3.60;;;11.00;99.90;;;;;;5052127;28;20629;-65
2023/03/27 08:34:02;;;;;;;4.23;3.83;;;10.60;99.90;;;;;;5034167;28;20570;-65
2023/03/27 08:36:27;;;;;;;4.37;3.90;;;9.90;99.90;;;;;;5039882;28;20194;-64
2023/03/27 08:38:54;;;;;;;4.30;4.10;;;9.40;99.90;;;;;;5051566;28;20758;-64
2023/03/27 08:41:59;;;;;;;5.33;4.93;;;8.90;99.90;;;;;;5044935;28;20200;-65
2023/03/27 08:44:27;;;;;;;4.80;4.60;;;8.40;99.90;;;;;;5031540;28;20199;-65
2023/03/27 08:46:53;;;;;;;4.97;4.73;;;7.80;99.90;;;;;;5041448;28;20240;-64
2023/03/27 08:49:20;;;;;;;5.80;5.40;;;7.50;99.90;;;;;;5050967;28;20226;-65
2023/03/27 08:51:56;;;;;;;5.67;5.20;;;7.20;99.90;;;;;;5042746;28;20273;-65
2023/03/27 08:54:26;;;;;;;5.50;5.20;;;7.60;99.90;;;;;;5031509;28;20171;-65
2023/03/27 08:56:52;;;;;;;6.07;5.57;;;7.70;99.90;;;;;;5039439;28;20183;-65
2023/03/27 08:59:20;;;;;;;5.27;5.07;;;8.10;99.90;;;;;;5050208;28;20679;-65
2023/03/27 09:02:04;;;;;;;5.93;4.67;;;8.70;99.90;;;;;;5044079;28;20234;-65
2023/03/27 09:04:52;;;;;;;5.03;4.70;;;9.20;99.90;;;;;;5031405;28;20692;-64
2023/03/27 09:07:27;;;;;;;5.33;4.83;;;9.30;99.90;;;;;;5042024;28;20187;-65
2023/03/27 09:09:58;;;;;;;4.63;4.33;;;9.10;99.90;;;;;;5051089;28;20668;-64
2023/03/27 09:12:48;;;;;;;4.80;4.50;;;9.10;99.90;;;;;;5049534;28;20186;-65
2023/03/27 09:15:43;;;;;;;4.37;4.17;;;8.80;99.90;;;;;;5050855;28;20560;-65
2023/03/27 09:18:37;;;;;;;4.50;4.30;;;9.10;99.90;;;;;;5031836;28;20183;-65
2023/03/27 09:21:47;;;;;;;5.13;4.63;;;9.40;99.90;;;;;;5031904;28;20179;-65
2023/03/27 09:24:45;;;;;;;4.27;4.07;;;9.90;99.90;;;;;;5051035;28;20181;-65
2023/03/27 09:27:22;;;;;;;4.50;4.20;;;9.90;99.90;;;;;;5041229;28;20182;-65
2023/03/27 09:30:17;;;;;;;4.10;3.80;;;10.40;99.90;;;;;;5030777;28;20187;-65
2023/03/27 09:32:45;;;;;;;7.60;4.60;;;10.40;99.90;;;;;;5039603;28;20276;-65
2023/03/27 09:35:17;;;;;;;4.70;4.40;;;9.90;99.90;;;;;;5031175;28;20210;-65
2023/03/27 09:37:43;;;;;;;5.90;5.60;;;9.10;99.90;;;;;;5043905;28;20190;-64
2023/03/27 09:40:22;;;;;;;5.73;5.03;;;8.60;99.90;;;;;;5035688;28;20215;-64
2023/03/27 09:42:51;;;;;;;5.27;4.87;;;8.30;99.90;;;;;;5039616;28;20570;-65
2023/03/27 09:45:18;;;;;;;5.63;5.23;;;7.90;99.90;;;;;;5032683;28;20167;-65
2023/03/27 09:48:00;;;;;;;5.00;4.70;;;8.00;99.90;;;;;;5031385;28;20180;-64
2023/03/27 09:50:41;;;;;;;4.83;4.40;;;8.60;99.90;;;;;;5010918;28;20203;-64
2023/03/27 09:53:11;;;;;;;4.77;4.30;;;9.20;99.90;;;;;;5038134;28;20656;-65
2023/03/27 09:55:49;;;;;;;4.20;4.00;;;9.30;99.90;;;;;;5050918;28;20289;-65
2023/03/27 09:58:23;;;;;;;4.20;3.90;;;9.60;99.90;;;;;;5036633;28;20183;-65
2023/03/27 10:01:06;;;;;;;5.20;4.70;;;10.10;99.90;;;;;;5030364;28;20680;-65
2023/03/27 10:03:40;;;;;;;4.53;3.70;;;10.80;99.90;;;;;;5046222;28;20183;-65
2023/03/27 10:06:08;;;;;;;3.70;3.50;;;11.40;99.90;;;;;;5048785;28;20262;-66
2023/03/27 10:08:45;;;;;;;4.40;4.10;;;11.70;99.90;;;;;;5051765;28;20166;-65
2023/03/27 10:11:15;;;;;;;4.00;3.80;;;11.20;99.90;;;;;;5037362;28;20542;-65
2023/03/27 10:13:46;;;;;;;4.30;4.00;;;10.10;99.90;;;;;;5016660;28;20202;-65
2023/03/27 10:16:16;;;;;;;4.67;4.47;;;9.80;99.90;;;;;;5050088;28;20178;-65
2023/03/27 10:18:47;;;;;;;4.70;4.40;;;9.60;99.90;;;;;;5054392;28;20581;-65
2023/03/27 10:21:33;;;;;;;4.60;4.37;;;9.30;99.90;;;;;;5037950;28;20175;-64
2023/03/27 10:24:03;;;;;;;5.30;5.10;;;9.20;99.90;;;;;;5034485;28;20633;-64
2023/03/27 10:26:31;;;;;;;4.20;4.00;;;9.00;99.90;;;;;;5051323;28;20209;-65
2023/03/27 10:29:05;;;;;;;4.13;3.90;;;9.10;99.90;;;;;;5053908;28;20222;-64
2023/03/27 10:31:34;;;;;;;4.00;3.70;;;9.90;99.90;;;;;;5036989;28;20175;-65
2023/03/27 10:34:02;;;;;;;4.33;3.90;;;10.60;99.90;;;;;;5032248;28;20652;-65
2023/03/27 10:36:36;;;;;;;4.50;4.13;;;10.40;99.90;;;;;;5054202;28;20649;-65
2023/03/27 10:39:06;;;;;;;5.17;4.87;;;9.70;99.90;;;;;;5053711;28;20277;-65
2023/03/27 10:41:35;;;;;;;5.03;4.83;;;8.90;99.90;;;;;;5013049;28;20689;-65
2023/03/27 10:44:05;;;;;;;4.93;4.70;;;8.80;99.90;;;;;;5014205;28;20279;-64
2023/03/27 10:46:36;;;;;;;5.20;4.73;;;9.30;99.90;;;;;;5022749;28;20225;-65
2023/03/27 10:49:37;;;;;;;4.27;3.93;;;9.90;99.90;;;;;;5033579;28;20254;-64
2023/03/27 10:52:13;;;;;;;4.30;3.90;;;10.50;99.90;;;;;;5014076;28;20191;-64
2023/03/27 10:54:50;;;;;;;3.90;3.60;;;10.90;99.90;;;;;;5017313;28;20692;-64
2023/03/27 10:57:24;;;;;;;3.93;3.73;;;11.00;99.90;;;;;;5033707;28;20175;-64
2023/03/27 11:00:12;;;;;;;4.33;4.03;;;10.90;99.90;;;;;;5033744;28;20676;-64
2023/03/27 11:02:57;;;;;;;4.47;4.17;;;10.80;99.90;;;;;;5033562;28;20609;-64
2023/03/27 11:05:29;;;;;;;4.40;4.20;;;10.10;99.90;;;;;;5037186;28;20505;-66
2023/03/27 11:08:16;;;;;;;4.77;4.40;;;9.20;99.90;;;;;;5033538;28;20173;-65
2023/03/27 11:10:44;;;;;;;6.50;6.00;;;8.80;99.90;;;;;;5044853;28;20329;-64
2023/03/27 11:13:15;;;;;;;6.20;5.60;;;8.90;99.90;;;;;;5053493;28;20194;-65
2023/03/27 11:16:14;;;;;;;7.13;4.20;;;9.10;99.90;;;;;;5053385;28;20199;-65
2023/03/27 11:18:52;;;;;;;3.77;3.60;;;9.90;99.90;;;;;;5039950;28;20202;-63
2023/03/27 11:21:37;;;;;;;3.73;3.53;;;10.70;99.90;;;;;;5052294;28;20535;-63
2023/03/27 11:24:09;;;;;;;4.07;3.70;;;11.40;99.90;;;;;;5050572;28;20253;-65
2023/03/27 11:26:58;;;;;;;4.13;3.90;;;11.80;99.90;;;;;;5035552;28;20175;-65
2023/03/27 11:29:41;;;;;;;4.20;3.90;;;12.00;99.90;;;;;;4973202;28;20216;-64
2023/03/27 11:32:20;;;;;;;3.70;3.60;;;12.50;99.90;;;;;;5013517;28;20176;-63
2023/03/27 11:35:01;;;;;;;3.80;3.60;;;11.90;99.90;;;;;;5013384;28;20178;-64
2023/03/27 11:37:38;;;;;;;4.27;3.97;;;11.40;99.90;;;;;;5017168;28;20184;-64
2023/03/27 11:40:27;;;;;;;3.60;3.50;;;10.90;99.90;;;;;;5030781;28;20234;-63
2023/03/27 11:42:53;;;;;;;4.33;4.13;;;10.50;99.90;;;;;;5037573;28;20690;-63
2023/03/27 11:45:28;;;;;;;6.03;4.40;;;9.90;99.90;;;;;;5034687;28;20175;-63
2023/03/27 11:48:02;;;;;;;6.20;4.50;;;9.40;99.90;;;;;;5048087;28;20179;-64
2023/03/27 11:50:51;;;;;;;4.57;4.37;;;9.00;99.90;;;;;;5032291;28;20314;-64
2023/03/27 11:53:36;;;;;;;5.00;4.53;;;8.50;99.90;;;;;;5039717;28;20189;-64
2023/03/27 11:56:30;;;;;;;4.80;4.60;;;7.90;99.90;;;;;;5052554;28;20224;-63
2023/03/27 11:59:03;;;;;;;5.27;5.00;;;7.60;99.90;;;;;;5040140;28;20203;-63
2023/03/27 12:01:44;;;;;;;4.63;4.43;;;7.90;99.90;;;;;;5032087;28;20199;-63
2023/03/27 12:04:24;;;;;;;4.03;3.83;;;8.90;99.90;;;;;;5045680;28;20680;-64
2023/03/27 12:07:16;;;;;;;4.03;3.83;;;9.70;99.90;;;;;;5052484;28;20170;-64
2023/03/27 12:09:55;;;;;;;5.53;5.33;;;9.60;99.90;;;;;;5034351;28;20688;-64
2023/03/27 12:12:34;;;;;;;4.57;4.37;;;8.70;99.90;;;;;;5031396;28;20183;-64
2023/03/27 12:15:34;;;;;;;5.03;4.77;;;7.80;99.90;;;;;;5050683;28;20182;-64
2023/03/27 12:18:12;;;;;;;4.83;4.63;;;6.90;99.90;;;;;;5047539;28;20195;-67
2023/03/27 12:21:03;;;;;;;4.73;4.53;;;6.30;99.90;;;;;;5031970;28;20254;-64
2023/03/27 12:23:44;;;;;;;4.87;4.67;;;6.10;99.90;;;;;;5043532;28;20175;-64
2023/03/27 12:26:16;;;;;;;4.97;4.70;;;5.90;99.90;;;;;;5052031;28;20255;-64
2023/03/27 12:28:47;;;;;;;4.67;4.47;;;5.90;99.90;;;;;;5038728;28;20531;-64
2023/03/27 12:31:40;;;;;;;4.60;4.40;;;6.30;99.90;;;;;;5030691;28;20190;-64
2023/03/27 12:34:40;;;;;;;4.80;4.60;;;7.10;99.90;;;;;;5033083;28;20657;-64
2023/03/27 12:37:10;;;;;;;4.73;4.43;;;8.20;99.90;;;;;;5032478;28;20160;-64
2023/03/27 12:39:47;;;;;;;5.10;4.90;;;8.80;99.90;;;;;;5051393;28;20685;-65
2023/03/27 12:42:14;;;;;;;4.57;4.37;;;9.30;99.90;;;;;;4994400;28;20202;-64
2023/03/27 12:45:04;;;;;;;4.70;4.50;;;8.80;99.90;;;;;;5011585;28;20172;-65
2023/03/27 12:47:29;;;;;;;4.40;4.20;;;8.20;99.90;;;;;;5012318;28;20176;-64
2023/03/27 12:49:57;;;;;;;4.60;4.40;;;7.70;99.90;;;;;;5014348;28;20580;-64
2023/03/27 12:52:24;;;;;;;4.67;4.47;;;7.60;99.90;;;;;;5051738;28;20167;-64
2023/03/27 12:55:12;;;;;;;4.17;3.97;;;7.70;99.90;;;;;;5051297;28;20171;-64
2023/03/27 12:57:45;;;;;;;4.47;4.20;;;8.40;99.90;;;;;;5012473;28;20223;-63
2023/03/27 13:00:29;;;;;;;4.07;3.87;;;9.20;99.90;;;;;;5016004;28;20539;-63
2023/03/27 13:03:16;;;;;;;4.30;4.00;;;9.70;99.90;;;;;;5051675;28;20348;-65
2023/03/27 13:06:00;;;;;;;4.57;4.37;;;10.30;99.90;;;;;;5050425;28;20171;-64
2023/03/27 13:09:01;;;;;;;4.83;4.63;;;10.50;99.90;;;;;;5051623;28;20228;-64
2023/03/27 13:12:08;;;;;;;5.33;5.03;;;10.30;99.90;;;;;;4984439;28;20592;-64
2023/03/27 13:15:12;;;;;;;4.63;4.43;;;10.00;99.90;;;;;;4970399;28;20666;-64
2023/03/27 13:17:41;;;;;;;4.90;4.53;;;9.40;99.90;;;;;;5012329;28;20176;-64
2023/03/27 13:20:38;;;;;;;4.90;4.70;;;9.00;99.90;;;;;;5011500;28;20192;-64
2023/03/27 13:23:46;;;;;;;4.83;4.63;;;8.40;99.90;;;;;;5004713;28;20215;-63